sensor_id;sensor_type;location;lat;lon;timestamp;pressure;altitude;pressure_sealevel;temperature;humidity
41218;BME280;26950;50.960;7.138;2023-04-28T00:00:16;100318.41;;;16.41;41.36
41218;BME280;26950;50.960;7.138;2023-04-28T00:02:43;100320.16;;;16.42;41.95
41218;BME280;26950;50.960;7.138;2023-04-28T00:05:10;100304.25;;;16.48;41.72
41218;BME280;26950;50.960;7.138;2023-04-28T00:07:36;100308.66;;;16.48;42.04
41218;BME280;26950;50.960;7.138;2023-04-28T00:10:05;100298.94;;;16.39;42.36
41218;BME280;26950;50.960;7.138;2023-04-28T00:12:31;100301.59;;;16.43;42.74
41218;BME280;26950;50.960;7.138;2023-04-28T00:14:58;100303.38;;;16.35;42.35
41218;BME280;26950;50.960;7.138;2023-04-28T00:17:25;100291.91;;;16.41;43.37
41218;BME280;26950;50.960;7.138;2023-04-28T00:19:51;100292.78;;;16.38;43.98
41218;BME280;26950;50.960;7.138;2023-04-28T00:22:18;100278.63;;;16.45;43.57
41218;BME280;26950;50.960;7.138;2023-04-28T00:24:44;100280.41;;;16.48;43.55
41218;BME280;26950;50.960;7.138;2023-04-28T00:27:12;100282.19;;;16.38;43.58
41218;BME280;26950;50.960;7.138;2023-04-28T00:29:38;100274.25;;;16.43;44.10
41218;BME280;26950;50.960;7.138;2023-04-28T00:32:05;100274.25;;;16.28;43.22
41218;BME280;26950;50.960;7.138;2023-04-28T00:34:32;100275.16;;;16.16;43.49
41218;BME280;26950;50.960;7.138;2023-04-28T00:36:58;100272.50;;;16.08;43.47
41218;BME280;26950;50.960;7.138;2023-04-28T00:39:25;100269.84;;;15.67;44.35
41218;BME280;26950;50.960;7.138;2023-04-28T00:41:51;100271.63;;;16.00;43.35
41218;BME280;26950;50.960;7.138;2023-04-28T00:44:19;100259.25;;;16.01;43.47
41218;BME280;26950;50.960;7.138;2023-04-28T00:46:46;100251.31;;;15.90;43.60
41218;BME280;26950;50.960;7.138;2023-04-28T00:49:14;100246.91;;;16.18;42.92
41218;BME280;26950;50.960;7.138;2023-04-28T00:51:40;100251.34;;;15.98;43.00
41218;BME280;26950;50.960;7.138;2023-04-28T00:54:07;100244.25;;;16.23;43.06
41218;BME280;26950;50.960;7.138;2023-04-28T00:56:35;100243.38;;;16.22;43.02
41218;BME280;26950;50.960;7.138;2023-04-28T00:59:01;100248.69;;;16.22;42.84
41218;BME280;26950;50.960;7.138;2023-04-28T01:01:29;100251.31;;;16.28;43.14
41218;BME280;26950;50.960;7.138;2023-04-28T01:03:57;100246.00;;;16.33;43.08
41218;BME280;26950;50.960;7.138;2023-04-28T01:06:24;100242.47;;;16.34;42.60
41218;BME280;26950;50.960;7.138;2023-04-28T01:08:50;100238.94;;;16.35;42.16
41218;BME280;26950;50.960;7.138;2023-04-28T01:11:17;100238.94;;;16.35;42.37
41218;BME280;26950;50.960;7.138;2023-04-28T01:13:44;100246.00;;;16.36;42.49
41218;BME280;26950;50.960;7.138;2023-04-28T01:16:10;100246.88;;;16.33;42.72
41218;BME280;26950;50.960;7.138;2023-04-28T01:18:41;100246.94;;;15.92;42.81
41218;BME280;26950;50.960;7.138;2023-04-28T01:21:11;100244.25;;;16.26;42.71
41218;BME280;26950;50.960;7.138;2023-04-28T01:23:38;100241.59;;;16.35;43.04
41218;BME280;26950;50.960;7.138;2023-04-28T01:26:05;100253.06;;;16.34;43.83
41218;BME280;26950;50.960;7.138;2023-04-28T01:28:32;100239.81;;;16.22;45.29
41218;BME280;26950;50.960;7.138;2023-04-28T01:30:58;100242.50;;;16.09;45.75
41218;BME280;26950;50.960;7.138;2023-04-28T01:33:25;100239.84;;;16.17;46.85
41218;BME280;26950;50.960;7.138;2023-04-28T01:35:56;100238.97;;;16.13;49.18
41218;BME280;26950;50.960;7.138;2023-04-28T01:38:22;100232.78;;;16.07;48.29
41218;BME280;26950;50.960;7.138;2023-04-28T01:40:49;100225.75;;;15.97;49.59
41218;BME280;26950;50.960;7.138;2023-04-28T01:43:17;100239.84;;;15.88;49.77
41218;BME280;26950;50.960;7.138;2023-04-28T01:45:43;100241.59;;;15.77;51.65
41218;BME280;26950;50.960;7.138;2023-04-28T01:48:10;100238.97;;;15.77;51.67
41218;BME280;26950;50.960;7.138;2023-04-28T01:50:36;100236.31;;;15.69;51.52
41218;BME280;26950;50.960;7.138;2023-04-28T01:53:03;100241.53;;;15.52;52.72
41218;BME280;26950;50.960;7.138;2023-04-28T01:55:29;100238.91;;;15.49;52.89
41218;BME280;26950;50.960;7.138;2023-04-28T01:57:55;100243.31;;;15.43;53.14
41218;BME280;26950;50.960;7.138;2023-04-28T02:00:24;100237.13;;;15.44;53.93
41218;BME280;26950;50.960;7.138;2023-04-28T02:02:51;100233.56;;;15.25;53.38
41218;BME280;26950;50.960;7.138;2023-04-28T02:05:17;100223.84;;;15.11;53.59
41218;BME280;26950;50.960;7.138;2023-04-28T02:07:44;100226.47;;;15.05;54.14
41218;BME280;26950;50.960;7.138;2023-04-28T02:10:10;100235.31;;;15.20;53.39
41218;BME280;26950;50.960;7.138;2023-04-28T02:12:37;100239.72;;;15.24;53.30
41218;BME280;26950;50.960;7.138;2023-04-28T02:15:04;100244.13;;;15.25;53.00
41218;BME280;26950;50.960;7.138;2023-04-28T02:17:32;100242.38;;;15.31;53.41
41218;BME280;26950;50.960;7.138;2023-04-28T02:19:59;100236.22;;;15.32;53.25
41218;BME280;26950;50.960;7.138;2023-04-28T02:22:25;100240.44;;;14.83;53.35
41218;BME280;26950;50.960;7.138;2023-04-28T02:24:52;100230.81;;;14.93;53.87
41218;BME280;26950;50.960;7.138;2023-04-28T02:27:18;100237.00;;;15.01;53.22
41218;BME280;26950;50.960;7.138;2023-04-28T02:29:45;100245.00;;;15.24;52.38
41218;BME280;26950;50.960;7.138;2023-04-28T02:32:11;100243.28;;;15.30;52.99
41218;BME280;26950;50.960;7.138;2023-04-28T02:34:39;100250.31;;;15.31;53.00
41218;BME280;26950;50.960;7.138;2023-04-28T02:37:05;100240.63;;;15.30;53.11
41218;BME280;26950;50.960;7.138;2023-04-28T02:39:32;100231.81;;;15.33;53.13
41218;BME280;26950;50.960;7.138;2023-04-28T02:41:58;100228.28;;;15.31;53.29
41218;BME280;26950;50.960;7.138;2023-04-28T02:44:25;100225.63;;;15.17;54.19
41218;BME280;26950;50.960;7.138;2023-04-28T02:46:51;100222.09;;;15.17;53.52
41218;BME280;26950;50.960;7.138;2023-04-28T02:49:18;100220.31;;;15.20;53.17
41218;BME280;26950;50.960;7.138;2023-04-28T02:51:46;100236.19;;;15.17;54.37
41218;BME280;26950;50.960;7.138;2023-04-28T02:54:12;100230.03;;;15.18;54.95
41218;BME280;26950;50.960;7.138;2023-04-28T02:56:38;100230.91;;;15.19;54.81
41218;BME280;26950;50.960;7.138;2023-04-28T02:59:05;100216.81;;;15.15;53.84
41218;BME280;26950;50.960;7.138;2023-04-28T03:01:31;100219.41;;;15.04;54.80
41218;BME280;26950;50.960;7.138;2023-04-28T03:03:58;100201.78;;;15.05;54.32
41218;BME280;26950;50.960;7.138;2023-04-28T03:06:24;100206.19;;;14.98;54.64
41218;BME280;26950;50.960;7.138;2023-04-28T03:08:53;100204.38;;;14.85;54.82
41218;BME280;26950;50.960;7.138;2023-04-28T03:11:20;100197.31;;;14.81;54.47
41218;BME280;26950;50.960;7.138;2023-04-28T03:13:46;100199.00;;;14.70;55.29
41218;BME280;26950;50.960;7.138;2023-04-28T03:16:13;100195.53;;;14.78;55.01
41218;BME280;26950;50.960;7.138;2023-04-28T03:18:39;100195.53;;;14.80;54.98
41218;BME280;26950;50.960;7.138;2023-04-28T03:21:05;100185.00;;;14.88;54.31
41218;BME280;26950;50.960;7.138;2023-04-28T03:23:32;100182.28;;;14.66;54.79
41218;BME280;26950;50.960;7.138;2023-04-28T03:26:00;100182.34;;;14.81;54.68
41218;BME280;26950;50.960;7.138;2023-04-28T03:28:26;100183.22;;;14.82;55.00
41218;BME280;26950;50.960;7.138;2023-04-28T03:30:53;100188.53;;;14.88;55.01
41218;BME280;26950;50.960;7.138;2023-04-28T03:33:20;100177.97;;;14.93;54.65
41218;BME280;26950;50.960;7.138;2023-04-28T03:35:46;100179.69;;;14.83;55.37
41218;BME280;26950;50.960;7.138;2023-04-28T03:38:13;100174.41;;;14.71;55.71
41218;BME280;26950;50.960;7.138;2023-04-28T03:40:39;100180.53;;;14.76;55.27
41218;BME280;26950;50.960;7.138;2023-04-28T03:43:07;100177.03;;;14.74;55.45
41218;BME280;26950;50.960;7.138;2023-04-28T03:45:34;100192.91;;;14.80;55.77
41218;BME280;26950;50.960;7.138;2023-04-28T03:48:00;100180.53;;;14.76;55.76
41218;BME280;26950;50.960;7.138;2023-04-28T03:50:28;100173.50;;;14.75;55.63
41218;BME280;26950;50.960;7.138;2023-04-28T03:52:54;100169.09;;;14.75;55.98
41218;BME280;26950;50.960;7.138;2023-04-28T03:55:21;100165.56;;;14.66;56.55
41218;BME280;26950;50.960;7.138;2023-04-28T03:57:47;100162.03;;;14.70;56.49
41218;BME280;26950;50.960;7.138;2023-04-28T04:00:15;100160.25;;;14.60;57.04
41218;BME280;26950;50.960;7.138;2023-04-28T04:02:42;100146.19;;;14.65;56.74
41218;BME280;26950;50.960;7.138;2023-04-28T04:05:08;100137.13;;;14.17;58.85
41218;BME280;26950;50.960;7.138;2023-04-28T04:07:35;100132.03;;;14.51;57.41
41218;BME280;26950;50.960;7.138;2023-04-28T04:10:01;100141.66;;;14.44;57.68
41218;BME280;26950;50.960;7.138;2023-04-28T04:12:28;100133.78;;;14.50;57.34
41218;BME280;26950;50.960;7.138;2023-04-28T04:14:54;100117.06;;;14.48;57.54
41218;BME280;26950;50.960;7.138;2023-04-28T04:17:22;100106.38;;;14.25;58.28
41218;BME280;26950;50.960;7.138;2023-04-28T04:19:49;100096.69;;;14.24;58.41
41218;BME280;26950;50.960;7.138;2023-04-28T04:22:15;100094.06;;;14.26;58.29
41218;BME280;26950;50.960;7.138;2023-04-28T04:24:41;100103.72;;;14.25;58.38
41218;BME280;26950;50.960;7.138;2023-04-28T04:27:08;100094.94;;;14.26;58.13
41218;BME280;26950;50.960;7.138;2023-04-28T04:29:34;100085.31;;;14.39;57.50
41218;BME280;26950;50.960;7.138;2023-04-28T04:32:01;100088.84;;;14.43;57.47
41218;BME280;26950;50.960;7.138;2023-04-28T04:34:29;100092.44;;;14.51;57.40
41218;BME280;26950;50.960;7.138;2023-04-28T04:36:55;100099.50;;;14.53;57.17
41218;BME280;26950;50.960;7.138;2023-04-28T04:39:22;100103.88;;;14.50;57.37
41218;BME280;26950;50.960;7.138;2023-04-28T04:41:48;100101.16;;;14.36;57.97
41218;BME280;26950;50.960;7.138;2023-04-28T04:44:14;100109.88;;;14.20;57.93
41218;BME280;26950;50.960;7.138;2023-04-28T04:46:41;100116.03;;;14.17;58.18
41218;BME280;26950;50.960;7.138;2023-04-28T04:49:07;100097.28;;;13.73;59.71
41218;BME280;26950;50.960;7.138;2023-04-28T04:51:35;100102.81;;;14.16;58.84
41218;BME280;26950;50.960;7.138;2023-04-28T04:54:01;100107.22;;;14.15;58.60
41218;BME280;26950;50.960;7.138;2023-04-28T04:56:28;100110.75;;;14.16;58.74
41218;BME280;26950;50.960;7.138;2023-04-28T04:58:55;100100.97;;;13.96;59.83
41218;BME280;26950;50.960;7.138;2023-04-28T05:01:21;100100.16;;;14.08;59.17
41218;BME280;26950;50.960;7.138;2023-04-28T05:03:48;100103.59;;;13.98;59.54
41218;BME280;26950;50.960;7.138;2023-04-28T05:06:14;100100.09;;;13.96;60.12
41218;BME280;26950;50.960;7.138;2023-04-28T05:08:42;100101.69;;;13.74;60.66
41218;BME280;26950;50.960;7.138;2023-04-28T05:11:09;100102.69;;;13.94;60.37
41218;BME280;26950;50.960;7.138;2023-04-28T05:13:35;100108.00;;;14.00;60.43
41218;BME280;26950;50.960;7.138;2023-04-28T05:16:04;100114.94;;;13.83;60.91
41218;BME280;26950;50.960;7.138;2023-04-28T05:18:30;100115.06;;;14.04;60.14
41218;BME280;26950;50.960;7.138;2023-04-28T05:20:57;100120.97;;;13.67;61.01
41218;BME280;26950;50.960;7.138;2023-04-28T05:23:23;100116.84;;;14.06;60.74
41218;BME280;26950;50.960;7.138;2023-04-28T05:25:51;100119.50;;;14.10;60.47
41218;BME280;26950;50.960;7.138;2023-04-28T05:28:18;100115.19;;;14.32;59.82
41218;BME280;26950;50.960;7.138;2023-04-28T05:30:46;100111.81;;;14.54;59.25
41218;BME280;26950;50.960;7.138;2023-04-28T05:33:12;100116.22;;;14.52;59.59
41218;BME280;26950;50.960;7.138;2023-04-28T05:35:39;100109.97;;;14.44;60.09
41218;BME280;26950;50.960;7.138;2023-04-28T05:38:05;100109.19;;;14.62;59.70
41218;BME280;26950;50.960;7.138;2023-04-28T05:40:32;100097.59;;;14.28;60.78
41218;BME280;26950;50.960;7.138;2023-04-28T05:42:59;100108.31;;;14.60;59.52
41218;BME280;26950;50.960;7.138;2023-04-28T05:45:26;100112.72;;;14.64;59.54
41218;BME280;26950;50.960;7.138;2023-04-28T05:47:52;100108.28;;;14.57;60.34
41218;BME280;26950;50.960;7.138;2023-04-28T05:50:19;100100.44;;;14.77;59.25
41218;BME280;26950;50.960;7.138;2023-04-28T05:52:45;100101.28;;;14.64;59.81
41218;BME280;26950;50.960;7.138;2023-04-28T05:55:12;100099.56;;;14.75;59.60
41218;BME280;26950;50.960;7.138;2023-04-28T05:57:38;100097.81;;;14.86;59.35
41218;BME280;26950;50.960;7.138;2023-04-28T06:00:08;100102.22;;;14.89;59.45
41218;BME280;26950;50.960;7.138;2023-04-28T06:02:34;100104.00;;;14.94;59.35
41218;BME280;26950;50.960;7.138;2023-04-28T06:05:01;100104.88;;;14.84;59.69
41218;BME280;26950;50.960;7.138;2023-04-28T06:07:27;100096.03;;;14.76;60.17
41218;BME280;26950;50.960;7.138;2023-04-28T06:09:53;100092.38;;;14.43;61.65
41218;BME280;26950;50.960;7.138;2023-04-28T06:12:20;100097.56;;;14.16;63.60
41218;BME280;26950;50.960;7.138;2023-04-28T06:14:46;100095.78;;;14.16;63.98
41218;BME280;26950;50.960;7.138;2023-04-28T06:17:14;100087.97;;;14.36;63.37
41218;BME280;26950;50.960;7.138;2023-04-28T06:19:41;100081.91;;;14.52;62.86
41218;BME280;26950;50.960;7.138;2023-04-28T06:22:07;100083.56;;;14.35;64.06
41218;BME280;26950;50.960;7.138;2023-04-28T06:24:33;100084.50;;;14.51;63.73
41218;BME280;26950;50.960;7.138;2023-04-28T06:27:00;100082.81;;;14.67;63.55
41218;BME280;26950;50.960;7.138;2023-04-28T06:29:27;100085.41;;;14.50;64.44
41218;BME280;26950;50.960;7.138;2023-04-28T06:31:54;100088.81;;;14.32;64.49
41218;BME280;26950;50.960;7.138;2023-04-28T06:34:24;100095.81;;;14.24;65.15
41218;BME280;26950;50.960;7.138;2023-04-28T06:36:52;100084.56;;;14.60;63.94
41218;BME280;26950;50.960;7.138;2023-04-28T06:39:19;100081.94;;;14.59;64.35
41218;BME280;26950;50.960;7.138;2023-04-28T06:41:46;100074.88;;;14.53;64.27
41218;BME280;26950;50.960;7.138;2023-04-28T06:44:12;100081.88;;;14.49;64.25
41218;BME280;26950;50.960;7.138;2023-04-28T06:46:39;100086.31;;;14.64;64.32
41218;BME280;26950;50.960;7.138;2023-04-28T06:49:06;100081.94;;;14.68;63.86
41218;BME280;26950;50.960;7.138;2023-04-28T06:51:34;100080.22;;;14.83;63.32
41218;BME280;26950;50.960;7.138;2023-04-28T06:54:01;100093.31;;;14.50;64.35
41218;BME280;26950;50.960;7.138;2023-04-28T06:56:27;100076.69;;;14.78;63.69
41218;BME280;26950;50.960;7.138;2023-04-28T06:58:54;100088.19;;;15.09;62.59
41218;BME280;26950;50.960;7.138;2023-04-28T07:01:21;100089.66;;;14.25;65.34
41218;BME280;26950;50.960;7.138;2023-04-28T07:03:48;100089.84;;;14.69;63.94
41218;BME280;26950;50.960;7.138;2023-04-28T07:06:14;100088.13;;;14.80;63.50
41218;BME280;26950;50.960;7.138;2023-04-28T07:08:42;100079.31;;;14.89;63.55
41218;BME280;26950;50.960;7.138;2023-04-28T07:11:09;100073.16;;;14.72;63.86
41218;BME280;26950;50.960;7.138;2023-04-28T07:13:35;100087.31;;;15.23;62.76
41218;BME280;26950;50.960;7.138;2023-04-28T07:16:02;100087.31;;;15.23;62.33
41218;BME280;26950;50.960;7.138;2023-04-28T07:18:29;100092.56;;;15.14;62.61
41218;BME280;26950;50.960;7.138;2023-04-28T07:20:56;100096.13;;;15.22;62.36
41218;BME280;26950;50.960;7.138;2023-04-28T07:23:22;100089.94;;;15.38;62.24
41218;BME280;26950;50.960;7.138;2023-04-28T07:25:50;100094.34;;;15.18;62.30
41218;BME280;26950;50.960;7.138;2023-04-28T07:28:16;100103.16;;;15.04;63.08
41218;BME280;26950;50.960;7.138;2023-04-28T07:30:43;100095.19;;;14.95;63.83
41218;BME280;26950;50.960;7.138;2023-04-28T07:33:09;100099.63;;;15.10;63.24
41218;BME280;26950;50.960;7.138;2023-04-28T07:35:36;100104.00;;;15.06;63.48
41218;BME280;26950;50.960;7.138;2023-04-28T07:38:02;100104.91;;;15.39;62.14
41218;BME280;26950;50.960;7.138;2023-04-28T07:40:29;100097.88;;;15.10;63.13
41218;BME280;26950;50.960;7.138;2023-04-28T07:42:56;100091.69;;;15.39;62.76
41218;BME280;26950;50.960;7.138;2023-04-28T07:45:23;100095.22;;;15.24;63.03
41218;BME280;26950;50.960;7.138;2023-04-28T07:47:50;100101.38;;;15.06;63.93
41218;BME280;26950;50.960;7.138;2023-04-28T07:50:17;100094.31;;;14.93;64.67
41218;BME280;26950;50.960;7.138;2023-04-28T07:52:43;100096.97;;;14.98;64.37
41218;BME280;26950;50.960;7.138;2023-04-28T07:55:09;100096.13;;;15.49;62.91
41218;BME280;26950;50.960;7.138;2023-04-28T07:57:36;100096.09;;;15.81;61.48
41218;BME280;26950;50.960;7.138;2023-04-28T08:00:05;100098.75;;;15.90;61.43
41218;BME280;26950;50.960;7.138;2023-04-28T08:02:32;100091.66;;;15.94;61.30
41218;BME280;26950;50.960;7.138;2023-04-28T08:04:59;100085.53;;;15.84;61.52
41218;BME280;26950;50.960;7.138;2023-04-28T08:07:25;100092.59;;;15.69;62.91
41218;BME280;26950;50.960;7.138;2023-04-28T08:09:52;100090.84;;;15.34;63.89
41218;BME280;26950;50.960;7.138;2023-04-28T08:12:19;100097.88;;;15.59;63.91
41218;BME280;26950;50.960;7.138;2023-04-28T08:14:46;100095.19;;;15.96;62.97
41218;BME280;26950;50.960;7.138;2023-04-28T08:17:14;100098.66;;;16.19;62.33
41218;BME280;26950;50.960;7.138;2023-04-28T08:19:41;100100.50;;;15.39;63.91
41218;BME280;26950;50.960;7.138;2023-04-28T08:22:10;100104.91;;;15.25;65.21
41218;BME280;26950;50.960;7.138;2023-04-28T08:24:36;100102.28;;;15.54;64.16
41218;BME280;26950;50.960;7.138;2023-04-28T08:27:03;100090.81;;;15.77;63.94
41218;BME280;26950;50.960;7.138;2023-04-28T08:29:30;100088.91;;;16.35;63.16
41218;BME280;26950;50.960;7.138;2023-04-28T08:31:57;100093.91;;;16.98;61.28
41218;BME280;26950;50.960;7.138;2023-04-28T08:34:24;100089.22;;;17.32;60.14
41218;BME280;26950;50.960;7.138;2023-04-28T08:36:51;100088.97;;;17.58;58.41
41218;BME280;26950;50.960;7.138;2023-04-28T08:39:18;100099.97;;;17.09;58.91
41218;BME280;26950;50.960;7.138;2023-04-28T08:41:46;100095.69;;;16.93;59.74
41218;BME280;26950;50.960;7.138;2023-04-28T08:44:13;100088.75;;;16.63;60.55
41218;BME280;26950;50.960;7.138;2023-04-28T08:46:40;100104.78;;;16.37;61.05
41218;BME280;26950;50.960;7.138;2023-04-28T08:49:12;100087.19;;;16.22;62.42
41218;BME280;26950;50.960;7.138;2023-04-28T08:51:44;100079.22;;;16.25;63.03
41218;BME280;26950;50.960;7.138;2023-04-28T08:54:13;100083.75;;;15.83;64.38
41218;BME280;26950;50.960;7.138;2023-04-28T08:56:40;100084.63;;;15.98;64.15
41218;BME280;26950;50.960;7.138;2023-04-28T08:59:09;100092.22;;;16.82;61.65
41218;BME280;26950;50.960;7.138;2023-04-28T09:01:36;100087.59;;;17.13;60.83
41218;BME280;26950;50.960;7.138;2023-04-28T09:04:03;100097.66;;;16.51;62.54
41218;BME280;26950;50.960;7.138;2023-04-28T09:06:31;100107.00;;;17.15;60.72
41218;BME280;26950;50.960;7.138;2023-04-28T09:09:21;100113.44;;;16.80;60.94
41218;BME280;26950;50.960;7.138;2023-04-28T09:11:52;100105.47;;;16.85;61.15
41218;BME280;26950;50.960;7.138;2023-04-28T09:14:20;100101.16;;;16.61;62.22
41218;BME280;26950;50.960;7.138;2023-04-28T09:16:46;100096.03;;;16.18;63.07
41218;BME280;26950;50.960;7.138;2023-04-28T09:19:13;100090.50;;;16.73;62.30
41218;BME280;26950;50.960;7.138;2023-04-28T09:21:47;100094.84;;;16.83;62.19
41218;BME280;26950;50.960;7.138;2023-04-28T09:24:27;100091.16;;;17.07;61.17
41218;BME280;26950;50.960;7.138;2023-04-28T09:26:53;100100.00;;;17.11;61.23
41218;BME280;26950;50.960;7.138;2023-04-28T09:29:20;100095.88;;;16.55;63.06
41218;BME280;26950;50.960;7.138;2023-04-28T09:31:46;100099.34;;;16.67;62.97
41218;BME280;26950;50.960;7.138;2023-04-28T09:34:13;100099.16;;;17.04;62.39
41218;BME280;26950;50.960;7.138;2023-04-28T09:36:40;100096.75;;;16.55;65.66
41218;BME280;26950;50.960;7.138;2023-04-28T09:39:06;100095.88;;;16.52;66.85
41218;BME280;26950;50.960;7.138;2023-04-28T09:41:38;100093.13;;;16.81;66.51
41218;BME280;26950;50.960;7.138;2023-04-28T09:44:12;100094.19;;;16.31;69.55
41218;BME280;26950;50.960;7.138;2023-04-28T09:46:39;100098.53;;;16.52;69.39
41218;BME280;26950;50.960;7.138;2023-04-28T09:49:05;100091.38;;;16.67;69.15
41218;BME280;26950;50.960;7.138;2023-04-28T09:51:33;100088.78;;;16.58;69.32
41218;BME280;26950;50.960;7.138;2023-04-28T09:54:00;100099.50;;;16.28;71.07
41218;BME280;26950;50.960;7.138;2023-04-28T09:56:27;100097.81;;;16.16;72.26
41218;BME280;26950;50.960;7.138;2023-04-28T09:58:57;100094.94;;;16.73;70.04
41218;BME280;26950;50.960;7.138;2023-04-28T10:01:24;100096.44;;;17.09;68.62
41218;BME280;26950;50.960;7.138;2023-04-28T10:03:51;100085.09;;;16.91;69.11
41218;BME280;26950;50.960;7.138;2023-04-28T10:06:18;100088.72;;;16.80;70.02
41218;BME280;26950;50.960;7.138;2023-04-28T10:08:46;100086.81;;;16.95;69.29
41218;BME280;26950;50.960;7.138;2023-04-28T10:11:15;100093.06;;;16.91;70.42
41218;BME280;26950;50.960;7.138;2023-04-28T10:13:42;100090.22;;;17.14;70.09
41218;BME280;26950;50.960;7.138;2023-04-28T10:16:10;100089.25;;;17.29;69.32
41218;BME280;26950;50.960;7.138;2023-04-28T10:18:38;100084.72;;;17.39;68.99
41218;BME280;26950;50.960;7.138;2023-04-28T10:21:05;100088.22;;;17.44;68.76
41218;BME280;26950;50.960;7.138;2023-04-28T10:23:59;100090.03;;;17.40;69.60
41218;BME280;26950;50.960;7.138;2023-04-28T10:26:53;100095.78;;;16.68;71.89
41218;BME280;26950;50.960;7.138;2023-04-28T10:29:24;100090.19;;;17.20;70.03
41218;BME280;26950;50.960;7.138;2023-04-28T10:32:15;100078.47;;;17.49;69.12
41218;BME280;26950;50.960;7.138;2023-04-28T10:34:42;100081.22;;;17.37;70.28
41218;BME280;26950;50.960;7.138;2023-04-28T10:37:09;100080.41;;;17.30;70.25
41218;BME280;26950;50.960;7.138;2023-04-28T10:39:35;100080.41;;;17.30;70.85
41218;BME280;26950;50.960;7.138;2023-04-28T10:42:02;100085.72;;;17.27;71.39
41218;BME280;26950;50.960;7.138;2023-04-28T10:44:40;100089.13;;;17.40;70.94
41218;BME280;26950;50.960;7.138;2023-04-28T10:47:08;100082.28;;;17.14;73.60
41218;BME280;26950;50.960;7.138;2023-04-28T10:50:05;100086.59;;;17.27;72.67
41218;BME280;26950;50.960;7.138;2023-04-28T10:52:47;100076.16;;;17.03;74.40
41218;BME280;26950;50.960;7.138;2023-04-28T10:55:30;100068.75;;;17.46;73.22
41218;BME280;26950;50.960;7.138;2023-04-28T10:58:31;100067.34;;;17.01;74.78
41218;BME280;26950;50.960;7.138;2023-04-28T11:01:24;100066.03;;;17.56;73.28
41218;BME280;26950;50.960;7.138;2023-04-28T11:03:51;100059.63;;;17.79;72.08
41218;BME280;26950;50.960;7.138;2023-04-28T11:06:26;100067.41;;;17.95;71.47
41218;BME280;26950;50.960;7.138;2023-04-28T11:08:54;100074.66;;;17.81;73.03
41218;BME280;26950;50.960;7.138;2023-04-28T11:11:23;100067.47;;;17.89;72.64
41218;BME280;26950;50.960;7.138;2023-04-28T11:13:50;100062.72;;;18.18;71.33
41218;BME280;26950;50.960;7.138;2023-04-28T11:16:21;100063.75;;;18.06;72.67
41218;BME280;26950;50.960;7.138;2023-04-28T11:18:52;100073.38;;;18.15;72.22
41218;BME280;26950;50.960;7.138;2023-04-28T11:21:19;100060.84;;;18.26;71.92
41218;BME280;26950;50.960;7.138;2023-04-28T11:23:48;100060.84;;;18.29;70.98
41218;BME280;26950;50.960;7.138;2023-04-28T11:26:15;100068.94;;;18.17;72.25
41218;BME280;26950;50.960;7.138;2023-04-28T11:28:49;100061.72;;;18.30;71.18
41218;BME280;26950;50.960;7.138;2023-04-28T11:31:17;100056.78;;;17.98;72.46
41218;BME280;26950;50.960;7.138;2023-04-28T11:33:48;100060.03;;;18.21;72.32
41218;BME280;26950;50.960;7.138;2023-04-28T11:36:28;100046.00;;;18.78;70.04
41218;BME280;26950;50.960;7.138;2023-04-28T11:38:57;100054.94;;;18.72;72.03
41218;BME280;26950;50.960;7.138;2023-04-28T11:41:24;100045.38;;;18.57;72.05
41218;BME280;26950;50.960;7.138;2023-04-28T11:43:51;100035.34;;;19.36;69.07
41218;BME280;26950;50.960;7.138;2023-04-28T11:46:19;100034.03;;;19.60;68.66
41218;BME280;26950;50.960;7.138;2023-04-28T11:48:46;100046.38;;;19.10;70.83
41218;BME280;26950;50.960;7.138;2023-04-28T11:51:33;100035.84;;;19.57;68.36
41218;BME280;26950;50.960;7.138;2023-04-28T11:54:01;100037.72;;;19.52;68.77
41218;BME280;26950;50.960;7.138;2023-04-28T11:56:29;100031.13;;;19.74;67.24
41218;BME280;26950;50.960;7.138;2023-04-28T11:59:03;100041.44;;;19.91;66.24
41218;BME280;26950;50.960;7.138;2023-04-28T12:01:30;100030.53;;;19.58;67.08
41218;BME280;26950;50.960;7.138;2023-04-28T12:03:58;100036.28;;;19.83;66.49
41218;BME280;26950;50.960;7.138;2023-04-28T12:06:25;100028.28;;;19.83;66.26
41218;BME280;26950;50.960;7.138;2023-04-28T12:08:52;100035.66;;;19.18;67.17
41218;BME280;26950;50.960;7.138;2023-04-28T12:11:20;100034.66;;;19.22;67.88
41218;BME280;26950;50.960;7.138;2023-04-28T12:14:05;100039.59;;;19.45;67.69
41218;BME280;26950;50.960;7.138;2023-04-28T12:16:39;100035.41;;;19.32;68.44
41218;BME280;26950;50.960;7.138;2023-04-28T12:19:09;100035.00;;;19.53;67.13
41218;BME280;26950;50.960;7.138;2023-04-28T12:21:36;100033.38;;;19.46;66.96
41218;BME280;26950;50.960;7.138;2023-04-28T12:24:18;100023.69;;;19.44;68.20
41218;BME280;26950;50.960;7.138;2023-04-28T12:26:47;100029.25;;;19.79;66.73
41218;BME280;26950;50.960;7.138;2023-04-28T12:29:34;100021.44;;;19.70;66.79
41218;BME280;26950;50.960;7.138;2023-04-28T12:32:00;100022.03;;;19.84;65.97
41218;BME280;26950;50.960;7.138;2023-04-28T12:34:27;100012.53;;;19.71;65.97
41218;BME280;26950;50.960;7.138;2023-04-28T12:36:55;100016.75;;;19.83;66.33
41218;BME280;26950;50.960;7.138;2023-04-28T12:39:21;100009.81;;;20.17;65.85
41218;BME280;26950;50.960;7.138;2023-04-28T12:41:50;100014.00;;;20.31;65.90
41218;BME280;26950;50.960;7.138;2023-04-28T12:44:16;100010.16;;;20.44;65.19
41218;BME280;26950;50.960;7.138;2023-04-28T12:46:43;100005.84;;;20.38;64.98
41218;BME280;26950;50.960;7.138;2023-04-28T12:49:09;100004.97;;;20.38;65.51
41218;BME280;26950;50.960;7.138;2023-04-28T12:51:36;100004.81;;;20.45;65.19
41218;BME280;26950;50.960;7.138;2023-04-28T12:54:03;100002.94;;;20.51;65.00